Southern Tiare — E5U2082 — position and weather

sailwx.info

Track history (hours):
 
Tides and Currents Weather Stations Pressure Air Temp Water Temp Dewpoint Dewpoint Depression Visibility Wind Speed Wind Dir Waves Ship Positions

Southern Tiare

Last reported at 2016-Feb-06 03:33 UTC. Time now 2016-Feb-06 20:45 UTC.
Position S 36°21' E 174°57'.

Length 67 m; draft 3.2 m.

Type: Cargo ship. MMSI: 518132000.

Date/timePositionNaut miles runAvg speedWind from/ knotsBaromVisibWave heightAir tempDewpointWater temp
2016-Feb-06 03:33S 36°21' E 174°57'7 7.0
2016-Feb-06 02:33S 36°28' E 174°57'9 7.1
2016-Feb-06 01:16S 36°38' E 174°57'15 3.8
2016-Feb-05 21:12S 36°50' E 174°47'0 0.0
2016-Feb-05 20:30S 36°50' E 174°47'0 0.0
2016-Feb-05 17:12S 36°50' E 174°47'0 0.0
2016-Feb-05 16:12S 36°50' E 174°47'0 0.0
2016-Feb-05 15:30S 36°50' E 174°47'0 0.0
2016-Feb-05 14:24S 36°50' E 174°47'0 0.0
2016-Feb-05 13:24S 36°50' E 174°47'0 0.0
2016-Feb-05 06:24S 36°50' E 174°47'0 0.0
2016-Feb-05 04:30S 36°50' E 174°47'  
2016-Feb-02 20:18S 36°50' E 174°47'0 0.0
2016-Feb-02 19:30S 36°50' E 174°47'0 0.0
2016-Feb-02 18:18S 36°50' E 174°47'0 0.0
2016-Feb-02 16:24S 36°50' E 174°47'0 0.0
2016-Feb-02 15:30S 36°50' E 174°47'0 0.0
2016-Feb-02 14:30S 36°50' E 174°47'0 0.0
2016-Feb-02 13:30S 36°50' E 174°47'0 0.0
2016-Feb-02 12:24S 36°50' E 174°47'0 0.0
2016-Feb-02 11:12S 36°50' E 174°47'0 0.0
2016-Feb-02 10:06S 36°50' E 174°47'0 0.0
2016-Feb-02 07:30S 36°50' E 174°47'0 0.0
2016-Feb-02 06:30S 36°50' E 174°47'0 0.0
2016-Feb-01 23:30S 36°50' E 174°47'0 0.0
2016-Feb-01 22:24S 36°50' E 174°47'0 0.0
2016-Feb-01 21:12S 36°50' E 174°47'0 0.0
2016-Feb-01 20:30S 36°50' E 174°47'0 0.0
2016-Feb-01 19:30S 36°50' E 174°47'0 0.0
2016-Feb-01 18:30S 36°50' E 174°47'0 0.0
2016-Feb-01 17:24S 36°50' E 174°47'0 0.0
2016-Feb-01 16:30S 36°50' E 174°47'0 0.0
2016-Feb-01 15:30S 36°50' E 174°47'0 0.0
2016-Feb-01 14:30S 36°50' E 174°47'0 0.0
2016-Feb-01 13:30S 36°50' E 174°47'0 0.0
2016-Feb-01 12:24S 36°50' E 174°47'0 0.0
2016-Feb-01 11:30S 36°50' E 174°47'0 0.0
2016-Feb-01 10:30S 36°50' E 174°47'0 0.0
2016-Feb-01 09:30S 36°50' E 174°47'0 0.0
2016-Feb-01 08:30S 36°50' E 174°47'0 0.0
2016-Feb-01 07:30S 36°50' E 174°47'3 3.0
2016-Feb-01 06:33S 36°49' E 174°50'6 0.3
2016-Jan-31 11:31S 36°44' E 174°52'4 4.5
2016-Jan-31 10:33S 36°47' E 174°48'4 0.4
2016-Jan-31 00:25S 36°50' E 174°47'0 0.0
2016-Jan-30 12:22S 36°50' E 174°47'1 0.7
2016-Jan-30 11:29S 36°50' E 174°48'1 0.6
2016-Jan-30 10:29S 36°50' E 174°47'0 0.0
2016-Jan-30 09:30S 36°50' E 174°47'0 0.0
2016-Jan-30 08:30S 36°50' E 174°47'0 0.0
2016-Jan-30 03:06S 36°50' E 174°47'0 0.0
2016-Jan-30 02:11S 36°50' E 174°47'0 0.0
2016-Jan-29 13:29S 36°50' E 174°47'0 0.0
2016-Jan-29 12:17S 36°50' E 174°47'0 0.0
2016-Jan-29 11:17S 36°50' E 174°47'0 0.0
2016-Jan-29 10:23S 36°50' E 174°47'0 0.0
2016-Jan-29 04:29S 36°50' E 174°47'0 0.0
2016-Jan-29 03:29S 36°50' E 174°47'0 0.0
2016-Jan-29 02:29S 36°50' E 174°47'0 0.0
2016-Jan-29 01:29S 36°50' E 174°47'0 0.0
2016-Jan-29 00:29S 36°50' E 174°47'0 0.0
2016-Jan-28 23:29S 36°50' E 174°47'0 0.0
2016-Jan-28 22:29S 36°50' E 174°47'0 0.0
2016-Jan-28 21:29S 36°50' E 174°47'0 0.0
2016-Jan-28 20:29S 36°50' E 174°47'0 0.0
2016-Jan-28 19:23S 36°50' E 174°47'0 0.0
2016-Jan-28 18:29S 36°50' E 174°47'0 0.0
2016-Jan-28 17:29S 36°50' E 174°47'0 0.0
2016-Jan-28 16:23S 36°50' E 174°47'0 0.0
2016-Jan-28 15:29S 36°50' E 174°47'0 0.0
2016-Jan-28 14:29S 36°50' E 174°47'0 0.0
2016-Jan-28 13:29S 36°50' E 174°47'0 0.0
2016-Jan-28 12:29S 36°50' E 174°47'0 0.0
2016-Jan-28 11:29S 36°50' E 174°47'0 0.0
2016-Jan-28 10:29S 36°50' E 174°47'0 0.0
2016-Jan-28 09:23S 36°50' E 174°47'0 0.0
2016-Jan-28 08:29S 36°50' E 174°47'0 0.0
2016-Jan-28 07:23S 36°50' E 174°47'0 0.0
2016-Jan-28 06:29S 36°50' E 174°47'0 0.0
2016-Jan-28 05:29S 36°50' E 174°47'0 0.0
2016-Jan-28 04:29S 36°50' E 174°47'0 0.0
2016-Jan-28 03:23S 36°50' E 174°47'0 0.0
2016-Jan-28 02:29S 36°50' E 174°47'0 0.0
2016-Jan-28 01:29S 36°50' E 174°47'0 0.0
2016-Jan-28 00:23S 36°50' E 174°47'0 0.0
2016-Jan-27 21:29S 36°50' E 174°47'0 0.0
2016-Jan-27 20:29S 36°50' E 174°47'0 0.0
2016-Jan-27 19:29S 36°50' E 174°47'0 0.0
2016-Jan-27 18:29S 36°50' E 174°47'0 0.0
2016-Jan-27 17:29S 36°50' E 174°47'0 0.0
2016-Jan-27 16:29S 36°50' E 174°47'0 0.0
2016-Jan-27 15:11S 36°50' E 174°47'0 0.0
2016-Jan-27 14:29S 36°50' E 174°47'0 0.0
2016-Jan-27 07:23S 36°50' E 174°47'0 0.0
2016-Jan-27 06:23S 36°50' E 174°47'0 0.0
2016-Jan-27 05:29S 36°50' E 174°47'  
Track history (hours):
 
Tides and Currents Weather Stations Pressure Air Temp Water Temp Dewpoint Dewpoint Depression Visibility Wind Speed Wind Dir Waves Ship Positions

Southern Tiare

Last reported at 2016-Feb-06 03:33 UTC. Time now 2016-Feb-06 20:45 UTC.
Position S 36°21' E 174°57'.

Length 67 m; draft 3.2 m.

Type: Cargo ship. MMSI: 518132000.

Date/timePositionNaut miles runAvg speedWind from/ knotsBaromVisibWave heightAir tempDewpointWater temp
2016-Feb-06 03:33S 36°21' E 174°57'7 7.0
2016-Feb-06 02:33S 36°28' E 174°57'9 7.1
2016-Feb-06 01:16S 36°38' E 174°57'15 3.8
2016-Feb-05 21:12S 36°50' E 174°47'0 0.0
2016-Feb-05 20:30S 36°50' E 174°47'0 0.0
2016-Feb-05 17:12S 36°50' E 174°47'0 0.0
2016-Feb-05 16:12S 36°50' E 174°47'0 0.0
2016-Feb-05 15:30S 36°50' E 174°47'0 0.0
2016-Feb-05 14:24S 36°50' E 174°47'0 0.0
2016-Feb-05 13:24S 36°50' E 174°47'0 0.0
2016-Feb-05 06:24S 36°50' E 174°47'0 0.0
2016-Feb-05 04:30S 36°50' E 174°47'  
2016-Feb-02 20:18S 36°50' E 174°47'0 0.0
2016-Feb-02 19:30S 36°50' E 174°47'0 0.0
2016-Feb-02 18:18S 36°50' E 174°47'0 0.0
2016-Feb-02 16:24S 36°50' E 174°47'0 0.0
2016-Feb-02 15:30S 36°50' E 174°47'0 0.0
2016-Feb-02 14:30S 36°50' E 174°47'0 0.0
2016-Feb-02 13:30S 36°50' E 174°47'0 0.0
2016-Feb-02 12:24S 36°50' E 174°47'0 0.0
2016-Feb-02 11:12S 36°50' E 174°47'0 0.0
2016-Feb-02 10:06S 36°50' E 174°47'0 0.0
2016-Feb-02 07:30S 36°50' E 174°47'0 0.0
2016-Feb-02 06:30S 36°50' E 174°47'0 0.0
2016-Feb-01 23:30S 36°50' E 174°47'0 0.0
2016-Feb-01 22:24S 36°50' E 174°47'0 0.0
2016-Feb-01 21:12S 36°50' E 174°47'0 0.0
2016-Feb-01 20:30S 36°50' E 174°47'0 0.0
2016-Feb-01 19:30S 36°50' E 174°47'0 0.0
2016-Feb-01 18:30S 36°50' E 174°47'0 0.0
2016-Feb-01 17:24S 36°50' E 174°47'0 0.0
2016-Feb-01 16:30S 36°50' E 174°47'0 0.0
2016-Feb-01 15:30S 36°50' E 174°47'0 0.0
2016-Feb-01 14:30S 36°50' E 174°47'0 0.0
2016-Feb-01 13:30S 36°50' E 174°47'0 0.0
2016-Feb-01 12:24S 36°50' E 174°47'0 0.0
2016-Feb-01 11:30S 36°50' E 174°47'0 0.0
2016-Feb-01 10:30S 36°50' E 174°47'0 0.0
2016-Feb-01 09:30S 36°50' E 174°47'0 0.0
2016-Feb-01 08:30S 36°50' E 174°47'0 0.0
2016-Feb-01 07:30S 36°50' E 174°47'3 3.0
2016-Feb-01 06:33S 36°49' E 174°50'6 0.3
2016-Jan-31 11:31S 36°44' E 174°52'4 4.5
2016-Jan-31 10:33S 36°47' E 174°48'4 0.4
2016-Jan-31 00:25S 36°50' E 174°47'0 0.0
2016-Jan-30 12:22S 36°50' E 174°47'1 0.7
2016-Jan-30 11:29S 36°50' E 174°48'1 0.6
2016-Jan-30 10:29S 36°50' E 174°47'0 0.0
2016-Jan-30 09:30S 36°50' E 174°47'0 0.0
2016-Jan-30 08:30S 36°50' E 174°47'0 0.0
2016-Jan-30 03:06S 36°50' E 174°47'0 0.0
2016-Jan-30 02:11S 36°50' E 174°47'0 0.0
2016-Jan-29 13:29S 36°50' E 174°47'0 0.0
2016-Jan-29 12:17S 36°50' E 174°47'0 0.0
2016-Jan-29 11:17S 36°50' E 174°47'0 0.0
2016-Jan-29 10:23S 36°50' E 174°47'0 0.0
2016-Jan-29 04:29S 36°50' E 174°47'0 0.0
2016-Jan-29 03:29S 36°50' E 174°47'0 0.0
2016-Jan-29 02:29S 36°50' E 174°47'0 0.0
2016-Jan-29 01:29S 36°50' E 174°47'0 0.0
2016-Jan-29 00:29S 36°50' E 174°47'0 0.0
2016-Jan-28 23:29S 36°50' E 174°47'0 0.0
2016-Jan-28 22:29S 36°50' E 174°47'0 0.0
2016-Jan-28 21:29S 36°50' E 174°47'0 0.0
2016-Jan-28 20:29S 36°50' E 174°47'0 0.0
2016-Jan-28 19:23S 36°50' E 174°47'0 0.0
2016-Jan-28 18:29S 36°50' E 174°47'0 0.0
2016-Jan-28 17:29S 36°50' E 174°47'0 0.0
2016-Jan-28 16:23S 36°50' E 174°47'0 0.0
2016-Jan-28 15:29S 36°50' E 174°47'0 0.0
2016-Jan-28 14:29S 36°50' E 174°47'0 0.0
2016-Jan-28 13:29S 36°50' E 174°47'0 0.0
2016-Jan-28 12:29S 36°50' E 174°47'0 0.0
2016-Jan-28 11:29S 36°50' E 174°47'0 0.0
2016-Jan-28 10:29S 36°50' E 174°47'0 0.0
2016-Jan-28 09:23S 36°50' E 174°47'0 0.0
2016-Jan-28 08:29S 36°50' E 174°47'0 0.0
2016-Jan-28 07:23S 36°50' E 174°47'0 0.0
2016-Jan-28 06:29S 36°50' E 174°47'0 0.0
2016-Jan-28 05:29S 36°50' E 174°47'0 0.0
2016-Jan-28 04:29S 36°50' E 174°47'0 0.0
2016-Jan-28 03:23S 36°50' E 174°47'0 0.0
2016-Jan-28 02:29S 36°50' E 174°47'0 0.0
2016-Jan-28 01:29S 36°50' E 174°47'0 0.0
2016-Jan-28 00:23S 36°50' E 174°47'0 0.0
2016-Jan-27 21:29S 36°50' E 174°47'0 0.0
2016-Jan-27 20:29S 36°50' E 174°47'0 0.0
2016-Jan-27 19:29S 36°50' E 174°47'0 0.0
2016-Jan-27 18:29S 36°50' E 174°47'0 0.0
2016-Jan-27 17:29S 36°50' E 174°47'0 0.0
2016-Jan-27 16:29S 36°50' E 174°47'0 0.0
2016-Jan-27 15:11S 36°50' E 174°47'0 0.0
2016-Jan-27 14:29S 36°50' E 174°47'0 0.0
2016-Jan-27 07:23S 36°50' E 174°47'0 0.0
2016-Jan-27 06:23S 36°50' E 174°47'0 0.0
2016-Jan-27 05:29S 36°50' E 174°47'  

Dump ship's entire track history